Melissa RD121's Hourly Summary for Sunday, May 13, 2018
Hour Temp
(f)
RH
(%)
Solar Rad.
(MJ/m2)
Rainfall
(in)
Wind
(mph)
5/13/2018 12:00 AM 73 75 0 0 2.5
5/13/2018 1:00 AM 73 78 0 0 3.98
5/13/2018 2:00 AM 73 80 0 0 5.66
5/13/2018 3:00 AM 73 83 0 0 6.27
5/13/2018 4:00 AM 72 85 0 0 6.33
5/13/2018 5:00 AM 71 88 0 0 4.43
5/13/2018 6:00 AM 70 92 0.04 0 2.92
5/13/2018 7:00 AM 71 89 0.39 0 1.5
5/13/2018 8:00 AM 72 81 0.7 0 6.59
5/13/2018 9:00 AM 74 76 1.33 0 7.13
5/13/2018 10:00 AM 76 70 1.78 0 7.2
5/13/2018 11:00 AM 79 62 2.53 0 6.73
5/13/2018 12:00 PM 81 59 2.9 0 7.23
5/13/2018 1:00 PM 82 55 2.67 0 7.64
5/13/2018 2:00 PM 83 51 2.45 0 6.99
5/13/2018 3:00 PM 85 47 2.64 0 8.17
5/13/2018 4:00 PM 85 49 1.4 0 7.5
5/13/2018 5:00 PM 85 50 1.47 0 6.51
5/13/2018 6:00 PM 84 52 0.89 0 5.76
5/13/2018 7:00 PM 82 54 0.27 0 4.11
5/13/2018 8:00 PM 79 60 0 0 2.02
5/13/2018 9:00 PM 78 65 0 0 1.51
5/13/2018 10:00 PM 76 69 0 0 0.7
5/13/2018 11:00 PM 75 72 0 0 2.89
Data Summary 77 68 21.46 0.00 5.09